.
WxDataArchive / Data Records for 2007-10-02
2007-10-01 October 2007 2007-10-03

Data Records for Tuesday, 02 October 2007

Time	Temp	Chill	HIndex	Humid	Dewpt	 Wind 	HiWind	WindDir	Rain 	Barom 
-----	----	-----	------	-----	-----	------	------	-------	-----	----- 
00:00	61.3	61.3	61.3	88	57.7	0	0	---	0.00	30.013 
00:05	61.2	61.2	61.2	88	57.6	0	0	---	0.00	30.014 
00:10	61.0	61.0	61.0	88	57.4	0	1	248	0.00	30.013 
00:15	60.7	60.7	60.7	88	57.1	0	1	---	0.00	30.012 
00:20	60.5	60.5	60.5	89	57.2	0	0	---	0.00	30.011 
00:25	60.4	60.4	60.4	89	57.1	0	0	---	0.00	30.013 
00:30	60.2	60.2	60.2	90	57.3	0	0	---	0.00	30.013 
00:35	60.1	60.1	60.1	90	57.2	0	0	---	0.00	30.013 
00:40	60.1	60.1	60.1	91	57.5	0	0	---	0.00	30.013 
00:45	59.9	59.9	59.9	91	57.3	0	0	---	0.00	30.013 
00:50	59.9	59.9	59.9	91	57.3	0	1	248	0.00	30.014 
00:55	59.9	59.9	59.9	91	57.3	0	0	---	0.00	30.014 
01:00	59.9	59.9	59.9	92	57.6	0	1	248	0.00	30.014 
01:05	60.1	60.1	60.1	92	57.8	0	1	248	0.00	30.013 
01:10	60.1	60.1	60.1	92	57.8	0	1	248	0.00	30.015 
01:15	60.2	60.2	60.2	92	57.9	0	1	248	0.00	30.015 
01:20	60.2	60.2	60.2	92	57.9	0	1	248	0.00	30.014 
01:25	60.2	60.2	60.2	91	57.6	0	0	---	0.00	30.014 
01:30	60.2	60.2	60.2	91	57.6	0	1	248	0.00	30.015 
01:35	60.2	60.2	60.2	91	57.6	0	1	248	0.00	30.016 
01:40	60.1	60.1	60.1	91	57.5	0	1	248	0.00	30.017 
01:45	60.1	60.1	60.1	91	57.5	0	1	248	0.00	30.018 
01:50	60.1	60.1	60.1	92	57.8	0	1	248	0.00	30.016 
01:55	60.1	60.1	60.1	92	57.8	0	1	248	0.00	30.014 
02:00	60.1	60.1	60.1	92	57.8	0	1	248	0.00	30.014 
02:05	60.1	60.1	60.1	92	57.8	0	1	248	0.00	30.017 
02:10	60.1	60.1	60.1	92	57.8	0	1	248	0.00	30.017 
02:15	59.9	59.9	59.9	92	57.6	0	1	248	0.00	30.017 
02:20	59.9	59.9	59.9	92	57.6	0	1	248	0.00	30.017 
02:25	59.9	59.9	59.9	92	57.6	0	1	248	0.00	30.016 
02:30	59.8	59.8	59.8	92	57.5	0	1	248	0.00	30.016 
02:35	59.8	59.8	59.8	92	57.5	0	1	248	0.00	30.016 
02:40	59.8	59.8	59.8	92	57.5	0	2	248	0.00	30.016 
02:45	59.8	59.8	59.8	92	57.5	0	1	248	0.00	30.015 
02:50	59.8	59.8	59.8	92	57.5	0	2	248	0.00	30.016 
02:55	59.9	59.9	59.9	92	57.6	0	3	248	0.00	30.016 
03:00	60.1	60.1	60.1	92	57.8	0	2	248	0.00	30.016 
03:05	60.2	60.2	60.2	92	57.9	0	2	248	0.00	30.020 
03:10	60.2	60.2	60.2	92	57.9	0	2	248	0.00	30.020 
03:15	60.4	60.4	60.4	92	58.1	0	2	248	0.00	30.020 
03:20	60.5	60.5	60.5	92	58.2	0	1	248	0.00	30.020 
03:25	60.5	60.5	60.5	92	58.2	0	1	248	0.00	30.019 
03:30	60.5	60.5	60.5	92	58.2	0	1	248	0.00	30.019 
03:35	60.4	60.4	60.4	92	58.1	0	1	248	0.00	30.023 
03:40	60.4	60.4	60.4	92	58.1	0	1	248	0.00	30.023 
03:45	60.5	60.5	60.5	92	58.2	0	1	248	0.00	30.020 
03:50	60.5	60.5	60.5	92	58.2	0	1	248	0.00	30.021 
03:55	60.5	60.5	60.5	92	58.2	0	0	---	0.00	30.019 
04:00	60.5	60.5	60.5	92	58.2	0	0	---	0.00	30.020 
04:05	60.5	60.5	60.5	92	58.2	0	0	---	0.00	30.023 
04:10	60.5	60.5	60.5	92	58.2	0	1	248	0.00	30.026 
04:15	60.7	60.7	60.7	92	58.4	0	1	248	0.00	30.026 
04:20	60.7	60.7	60.7	92	58.4	0	0	---	0.00	30.028 
04:25	60.7	60.7	60.7	92	58.4	0	1	248	0.00	30.030 
04:30	60.7	60.7	60.7	92	58.4	0	1	248	0.00	30.033 
04:35	60.7	60.7	60.7	92	58.4	0	1	248	0.00	30.034 
04:40	60.9	60.9	60.9	92	58.6	0	0	---	0.00	30.035 
04:45	60.9	60.9	60.9	92	58.6	0	1	248	0.00	30.036 
04:50	61.0	61.0	61.0	92	58.7	0	1	248	0.00	30.035 
04:55	61.0	61.0	61.0	92	58.7	0	1	248	0.00	30.035 
05:00	61.0	61.0	61.0	92	58.7	0	0	---	0.00	30.036 
05:05	61.0	61.0	61.0	92	58.7	0	1	248	0.00	30.037 
05:10	61.2	61.2	61.2	92	58.9	0	0	---	0.00	30.037 
05:15	61.0	61.0	61.0	92	58.7	0	0	---	0.00	30.040 
05:20	61.0	61.0	61.0	92	58.7	0	1	248	0.00	30.044 
05:25	61.0	61.0	61.0	92	58.7	0	1	248	0.00	30.046 
05:30	61.0	61.0	61.0	92	58.7	0	1	248	0.00	30.047 
05:35	61.0	61.0	61.0	93	59.0	0	1	248	0.00	30.046 
05:40	61.0	61.0	61.0	93	59.0	0	1	248	0.00	30.046 
05:45	61.0	61.0	61.0	93	59.0	0	1	248	0.00	30.047 
05:50	61.0	61.0	61.0	93	59.0	0	1	248	0.00	30.050 
05:55	61.0	61.0	61.0	93	59.0	0	0	---	0.00	30.051 
06:00	61.0	61.0	61.0	93	59.0	0	1	248	0.00	30.051 
06:05	61.0	61.0	61.0	93	59.0	0	1	248	0.00	30.051 
06:10	61.0	61.0	61.0	93	59.0	0	1	248	0.00	30.052 
06:15	61.0	61.0	61.0	93	59.0	0	1	248	0.00	30.053 
06:20	60.9	60.9	60.9	93	58.9	0	0	---	0.00	30.054 
06:25	60.9	60.9	60.9	93	58.9	0	0	---	0.00	30.054 
06:30	60.9	60.9	60.9	93	58.9	0	0	---	0.00	30.053 
06:35	60.7	60.7	60.7	93	58.7	0	1	248	0.00	30.054 
06:40	60.7	60.7	60.7	93	58.7	0	1	248	0.00	30.054 
06:45	60.9	60.9	60.9	93	58.9	0	0	---	0.00	30.053 
06:50	60.7	60.7	60.7	93	58.7	0	0	---	0.00	30.053 
06:55	60.7	60.7	60.7	93	58.7	0	0	---	0.00	30.053 
07:00	60.9	60.9	60.9	93	58.9	0	0	---	0.00	30.054 
07:05	60.9	60.9	60.9	93	58.9	0	0	---	0.00	30.056 
07:10	60.9	60.9	60.9	93	58.9	0	0	---	0.00	30.058 
07:15	60.9	60.9	60.9	93	58.9	0	0	---	0.00	30.063 
07:20	61.0	61.0	61.0	93	59.0	0	1	248	0.00	30.065 
07:25	61.0	61.0	61.0	93	59.0	0	0	---	0.00	30.061 
07:30	61.2	61.2	61.2	93	59.2	0	0	---	0.00	30.058 
07:35	61.2	61.2	61.2	93	59.2	0	1	248	0.00	30.055 
07:40	61.3	61.3	61.3	93	59.3	0	0	---	0.00	30.057 
07:45	61.5	61.5	61.5	93	59.5	0	2	248	0.00	30.067 
07:50	61.6	61.6	61.6	93	59.6	0	1	248	0.00	30.067 
07:55	61.6	61.6	61.6	93	59.6	0	2	248	0.00	30.068 
08:00	61.8	61.8	61.8	92	59.4	0	2	248	0.00	30.065 
08:05	61.8	61.8	61.8	92	59.4	0	1	248	0.00	30.068 
08:10	61.8	61.8	61.8	92	59.4	0	2	248	0.00	30.067 
08:15	61.8	61.8	61.8	91	59.1	0	3	248	0.00	30.067 
08:20	62.0	62.0	62.0	91	59.3	0	2	248	0.00	30.069 
08:25	61.8	61.8	61.8	91	59.1	0	2	270	0.00	30.070 
08:30	62.0	62.0	62.0	91	59.3	0	2	270	0.00	30.072 
08:35	62.1	62.1	62.1	91	59.4	0	1	270	0.00	30.073 
08:40	62.3	62.3	62.3	91	59.6	0	2	270	0.00	30.074 
08:45	62.4	62.4	62.4	90	59.4	0	2	270	0.00	30.073 
08:50	62.3	62.3	62.3	89	59.0	1	2	270	0.00	30.071 
08:55	62.3	62.3	62.3	89	59.0	0	2	270	0.00	30.069 
09:00	62.3	62.3	62.3	90	59.3	0	2	270	0.00	30.067 
09:05	62.4	62.4	62.4	90	59.4	0	2	270	0.00	30.066 
09:10	62.6	62.6	62.6	89	59.3	1	3	270	0.00	30.066 
09:15	62.9	62.9	62.9	90	59.9	0	2	270	0.00	30.064 
09:20	63.2	63.2	63.2	89	59.9	0	1	270	0.00	30.065 
09:25	63.2	63.2	63.2	89	59.9	0	1	270	0.00	30.067 
09:30	63.4	63.4	63.4	89	60.1	0	1	270	0.00	30.067 
09:35	63.5	63.5	63.5	88	59.9	0	2	270	0.00	30.067 
09:40	63.9	63.9	63.9	88	60.3	1	3	248	0.00	30.068 
09:45	64.0	64.0	64.0	87	60.0	1	3	248	0.00	30.067 
09:50	64.2	64.2	64.2	86	59.9	1	3	90	0.00	30.067 
09:55	64.3	64.3	64.3	86	60.0	1	3	248	0.00	30.068 
10:00	64.3	64.3	64.3	86	60.0	1	2	248	0.00	30.067 
10:05	64.3	64.3	64.3	86	60.0	1	3	248	0.00	30.071 
10:10	64.2	64.2	64.2	86	59.9	1	2	248	0.00	30.071 
10:15	64.3	64.3	64.3	87	60.3	0	2	248	0.00	30.067 
10:20	64.7	64.7	64.7	86	60.4	1	5	90	0.00	30.066 
10:25	65.3	65.3	65.3	85	60.7	0	3	90	0.00	30.066 
10:30	65.8	65.8	65.8	83	60.5	1	3	248	0.00	30.060 
10:35	66.6	66.6	66.6	82	60.9	1	2	248	0.00	30.061 
10:40	67.8	67.8	67.8	80	61.4	1	3	248	0.00	30.062 
10:45	68.6	68.6	68.6	77	61.1	1	4	90	0.00	30.058 
10:50	69.1	69.1	69.1	76	61.2	2	4	90	0.00	30.055 
10:55	68.9	68.9	68.9	76	61.0	2	4	112	0.00	30.058 
11:00	69.1	69.1	69.1	77	61.6	1	2	90	0.00	30.054 
11:05	69.3	69.3	69.3	76	61.4	1	4	248	0.00	30.049 
11:10	69.6	69.6	69.6	76	61.7	1	3	0	0.00	30.049 
11:15	69.9	69.9	69.9	75	61.6	1	2	68	0.00	30.046 
11:20	70.4	70.4	70.4	74	61.7	1	3	68	0.00	30.044 
11:25	70.8	70.8	70.8	72	61.3	1	3	270	0.00	30.037 
11:30	71.1	71.1	71.1	72	61.6	1	4	112	0.00	30.036 
11:35	71.5	71.5	71.5	69	60.8	2	6	90	0.00	30.032 
11:40	71.8	71.8	71.8	68	60.7	2	6	248	0.00	30.031 
11:45	72.1	72.1	72.1	68	60.9	1	3	248	0.00	30.029 
11:50	72.5	72.5	72.5	66	60.5	2	5	90	0.00	30.027 
11:55	72.8	72.8	72.8	65	60.3	1	5	90	0.00	30.024 
12:00	72.7	72.7	72.7	65	60.2	2	6	112	0.00	30.021 
12:05	72.7	72.7	72.7	66	60.7	1	4	90	0.00	30.019 
12:10	72.8	72.8	72.8	64	59.9	1	5	68	0.00	30.015 
12:15	72.8	72.8	72.8	65	60.3	1	4	248	0.00	30.014 
12:20	72.7	72.7	72.7	65	60.2	1	5	270	0.00	30.014 
12:25	72.8	72.8	72.8	65	60.3	1	4	90	0.00	30.012 
12:30	73.7	73.7	73.7	65	61.2	1	4	68	0.00	30.009 
12:35	74.4	74.4	74.4	62	60.5	1	6	112	0.00	30.004 
12:40	74.6	74.6	74.6	61	60.2	1	3	68	0.00	30.000 
12:45	74.4	74.4	74.4	60	59.6	2	7	90	0.00	29.998 
12:50	74.2	74.2	74.2	62	60.3	1	3	45	0.00	29.996 
12:55	74.6	74.6	74.6	62	60.7	1	7	315	0.00	29.996 
13:00	74.6	74.6	74.6	61	60.2	1	3	292	0.00	29.993 
13:05	74.9	74.9	74.9	59	59.6	2	6	90	0.00	29.991 
13:10	75.1	75.1	77.5	59	59.8	2	5	112	0.00	29.991 
13:15	74.9	74.9	74.9	60	60.1	2	7	112	0.00	29.987 
13:20	75.1	75.1	77.4	60	60.2	3	10	90	0.00	29.984 
13:25	75.4	75.4	77.7	58	59.6	2	5	68	0.00	29.982 
13:30	75.4	75.4	77.7	58	59.6	2	5	68	0.00	29.980 
13:35	75.1	75.1	77.5	58	59.3	1	4	270	0.00	29.981 
13:40	75.1	75.1	77.4	60	60.2	1	4	112	0.00	29.980 
13:45	74.9	74.9	74.9	59	59.6	2	6	270	0.00	29.982 
13:50	75.6	75.6	77.7	61	61.2	0	3	270	0.00	29.980 
13:55	76.3	76.3	78.3	57	59.9	2	5	270	0.00	29.970 
14:00	76.8	76.8	78.6	56	59.9	2	5	248	0.00	29.969 
14:05	76.3	76.3	78.3	56	59.4	1	4	248	0.00	29.969 
14:10	75.8	75.8	77.9	57	59.5	1	4	270	0.00	29.969 
14:15	75.4	75.4	77.7	58	59.6	1	4	270	0.00	29.970 
14:20	75.3	75.3	77.6	58	59.5	1	4	292	0.00	29.969 
14:25	75.3	75.3	77.5	60	60.4	0	2	270	0.00	29.967 
14:30	75.3	75.3	77.6	59	60.0	0	2	248	0.00	29.967 
14:35	75.6	75.6	77.8	58	59.8	0	2	248	0.00	29.964 
14:40	76.0	76.0	78.0	59	60.6	0	1	248	0.00	29.962 
14:45	76.1	76.1	78.1	58	60.2	1	4	68	0.00	29.962 
14:50	76.5	76.5	78.4	58	60.6	1	4	90	0.00	29.959 
14:55	76.8	76.8	78.6	56	59.9	1	5	112	0.00	29.953 
15:00	77.2	77.2	78.9	57	60.8	1	3	112	0.00	29.951 
15:05	77.6	77.6	79.2	55	60.1	0	2	202	0.00	29.948 
15:10	77.7	77.7	79.2	54	59.7	1	3	248	0.00	29.948 
15:15	77.7	77.7	79.2	54	59.7	1	3	112	0.00	29.946 
15:20	77.9	77.9	79.3	54	59.9	1	3	90	0.00	29.944 
15:25	78.1	78.1	79.5	54	60.1	0	1	90	0.00	29.940 
15:30	78.3	78.3	79.6	52	59.2	1	3	68	0.00	29.937 
15:35	78.5	78.5	79.6	51	58.8	1	3	270	0.00	29.932 
15:40	78.3	78.3	79.6	52	59.2	1	2	315	0.00	29.930 
15:45	78.3	78.3	79.6	52	59.2	0	2	292	0.00	29.931 
15:50	78.3	78.3	79.6	53	59.7	0	1	292	0.00	29.931 
15:55	78.5	78.5	79.6	51	58.8	1	3	90	0.00	29.924 
16:00	78.5	78.5	79.7	52	59.4	1	3	90	0.00	29.927 
16:05	78.5	78.5	79.6	51	58.8	1	3	90	0.00	29.922 
16:10	78.5	78.5	79.7	52	59.4	1	3	90	0.00	29.918 
16:15	78.5	78.5	79.8	53	59.9	1	3	68	0.00	29.917 
16:20	78.3	78.3	79.6	52	59.2	1	3	68	0.00	29.918 
16:25	78.5	78.5	79.6	51	58.8	2	3	90	0.00	29.916 
16:30	78.5	78.5	79.6	51	58.8	1	4	90	0.00	29.914 
16:35	78.5	78.5	79.6	51	58.8	0	2	248	0.00	29.914 
16:40	78.3	78.3	79.6	52	59.2	0	2	90	0.00	29.916 
16:45	77.9	77.9	79.3	53	59.4	0	1	90	0.00	29.916 
16:50	77.6	77.6	79.1	53	59.1	1	4	90	0.00	29.915 
16:55	77.4	77.4	78.9	52	58.4	1	3	112	0.00	29.914 
17:00	77.4	77.4	79.0	54	59.4	0	1	90	0.00	29.910 
17:05	77.2	77.2	78.8	54	59.2	0	1	90	0.00	29.911 
17:10	77.0	77.0	78.7	55	59.6	0	2	90	0.00	29.909 
17:15	76.7	76.7	78.5	55	59.3	0	0	---	0.00	29.908 
17:20	76.5	76.5	78.4	57	60.1	0	0	---	0.00	29.905 
17:25	76.1	76.1	78.1	56	59.2	0	0	---	0.00	29.902 
17:30	76.0	76.0	78.1	56	59.2	0	1	90	0.00	29.901 
17:35	76.0	76.0	78.1	56	59.2	0	1	90	0.00	29.901 
17:40	76.3	76.3	78.3	56	59.4	0	3	112	0.00	29.901 
17:45	76.7	76.7	78.5	54	58.8	1	5	112	0.00	29.898 
17:50	76.8	76.8	78.6	54	58.9	0	2	112	0.00	29.900 
17:55	77.0	77.0	78.7	54	59.1	0	3	112	0.00	29.900 
18:00	77.2	77.2	78.8	54	59.2	0	3	90	0.00	29.899 
18:05	77.2	77.2	78.8	53	58.7	0	2	90	0.00	29.897 
18:10	77.0	77.0	78.7	53	58.5	0	2	112	0.00	29.896 
18:15	76.8	76.8	78.5	53	58.4	0	2	112	0.00	29.894 
18:20	76.5	76.5	78.4	53	58.1	0	2	112	0.00	29.896 
18:25	76.1	76.1	78.1	53	57.7	0	2	112	0.00	29.899 
18:30	75.8	75.8	78.0	53	57.4	0	3	112	0.00	29.901 
18:35	75.4	75.4	77.8	54	57.6	0	2	112	0.00	29.900 
18:40	75.3	75.3	77.7	54	57.5	0	3	112	0.00	29.900 
18:45	74.9	74.9	74.9	55	57.6	0	2	112	0.00	29.901 
18:50	74.6	74.6	74.6	55	57.3	0	2	45	0.00	29.902 
18:55	74.2	74.2	74.2	55	57.0	0	2	22	0.00	29.905 
19:00	73.9	73.9	73.9	56	57.2	0	1	22	0.00	29.906 
19:05	73.5	73.5	73.5	56	56.8	0	1	22	0.00	29.902 
19:10	73.5	73.5	73.5	56	56.8	0	1	22	0.00	29.901 
19:15	73.3	73.3	73.3	56	56.6	0	1	22	0.00	29.905 
19:20	73.0	73.0	73.0	57	56.9	0	1	22	0.00	29.904 
19:25	72.7	72.7	72.7	58	57.1	0	2	22	0.00	29.904 
19:30	72.5	72.5	72.5	58	56.9	0	1	22	0.00	29.904 
19:35	72.1	72.1	72.1	59	57.0	0	1	22	0.00	29.904 
19:40	72.0	72.0	72.0	59	56.9	0	0	---	0.00	29.906 
19:45	71.8	71.8	71.8	60	57.2	0	1	22	0.00	29.913 
19:50	71.6	71.6	71.6	60	57.0	0	0	---	0.00	29.916 
19:55	71.6	71.6	71.6	60	57.0	0	0	---	0.00	29.915 
20:00	71.5	71.5	71.5	60	56.9	0	1	22	0.00	29.915 
20:05	71.3	71.3	71.3	61	57.1	0	0	---	0.00	29.918 
20:10	71.1	71.1	71.1	62	57.4	0	0	---	0.00	29.920 
20:15	70.8	70.8	70.8	62	57.1	0	0	---	0.00	29.919 
20:20	70.4	70.4	70.4	63	57.2	0	1	22	0.00	29.918 
20:25	70.3	70.3	70.3	63	57.1	0	0	---	0.00	29.918 
20:30	70.1	70.1	70.1	64	57.3	0	0	---	0.00	29.911 
20:35	69.9	69.9	69.9	63	56.7	0	1	22	0.00	29.907 
20:40	70.1	70.1	70.1	63	56.9	0	2	22	0.00	29.905 
20:45	70.3	70.3	70.3	63	57.1	0	1	22	0.00	29.903 
20:50	70.4	70.4	70.4	63	57.2	0	1	22	0.00	29.904 
20:55	70.4	70.4	70.4	63	57.2	0	1	22	0.00	29.900 
21:00	70.3	70.3	70.3	63	57.1	0	1	22	0.00	29.898 
21:05	70.3	70.3	70.3	63	57.1	0	2	22	0.00	29.892 
21:10	70.3	70.3	70.3	63	57.1	0	3	90	0.00	29.889 
21:15	70.4	70.4	70.4	63	57.2	1	3	112	0.00	29.887 
21:20	70.4	70.4	70.4	62	56.7	0	1	90	0.00	29.885 
21:25	70.4	70.4	70.4	63	57.2	1	3	90	0.00	29.881 
21:30	70.4	70.4	70.4	63	57.2	0	2	90	0.00	29.879 
21:35	70.6	70.6	70.6	63	57.4	0	2	90	0.00	29.879 
21:40	70.8	70.8	70.8	62	57.1	1	3	315	0.00	29.876 
21:45	71.1	71.1	71.1	62	57.4	1	3	292	0.00	29.874 
21:50	71.1	71.1	71.1	61	57.0	1	4	45	0.00	29.873 
21:55	71.3	71.3	71.3	61	57.1	1	3	22	0.00	29.871 
22:00	71.3	71.3	71.3	61	57.1	1	4	90	0.00	29.862 
22:05	71.3	71.3	71.3	61	57.1	1	6	90	0.00	29.852 
22:10	71.1	71.1	71.1	61	57.0	1	3	90	0.00	29.847 
22:15	71.1	71.1	71.1	61	57.0	1	5	90	0.00	29.841 
22:20	71.3	71.3	71.3	61	57.1	1	5	90	0.00	29.841 
22:25	71.3	71.3	71.3	61	57.1	1	3	0	0.00	29.839 
22:30	71.3	71.3	71.3	61	57.1	1	4	248	0.00	29.842 
22:35	71.1	71.1	71.1	61	57.0	0	3	45	0.00	29.840 
22:40	71.1	71.1	71.1	61	57.0	1	3	68	0.00	29.839 
22:45	71.1	71.1	71.1	61	57.0	1	3	68	0.00	29.838 
22:50	71.1	71.1	71.1	61	57.0	1	3	90	0.00	29.839 
22:55	70.9	70.9	70.9	61	56.8	1	4	90	0.00	29.836 
23:00	70.9	70.9	70.9	61	56.8	1	3	90	0.00	29.836 
23:05	70.8	70.8	70.8	62	57.1	1	3	45	0.00	29.832 
23:10	70.6	70.6	70.6	61	56.5	1	5	112	0.00	29.831 
23:15	70.6	70.6	70.6	62	56.9	1	4	112	0.00	29.831 
23:20	70.4	70.4	70.4	62	56.7	1	4	112	0.00	29.829 
23:25	70.4	70.4	70.4	62	56.7	1	3	112	0.00	29.823 
23:30	70.3	70.3	70.3	62	56.7	1	3	68	0.00	29.820 
23:35	70.1	70.1	70.1	62	56.5	1	2	45	0.00	29.820 
23:40	70.1	70.1	70.1	62	56.5	1	5	135	0.00	29.818 
23:45	70.1	70.1	70.1	62	56.5	1	3	90	0.00	29.818 
23:50	69.9	69.9	69.9	62	56.3	1	2	112	0.00	29.819 
23:55	69.8	69.8	69.8	62	56.2	1	3	90	0.00	29.818 

CoCoRaHS
IN-AL-39
A2 Web Hosting
Creative Commons License
GoDaddy
Look for:

loaded 2017-12-12 07:31:35 • last modified 2010-11-18 10:43:29
Privacy PolicyDisclaimer
• wx.awcolley.com is powered by PmWiki v.2002016 •
• all content (unless otherwise noted) © 2017 A W Colley